sensor_id;sensor_type;location;lat;lon;timestamp;pressure;altitude;pressure_sealevel;temperature
79172;BMP280;68597;53.238;-1.418;2023-04-25T00:00:03;100858.38;;;3.48
79172;BMP280;68597;53.238;-1.418;2023-04-25T00:02:37;100838.25;;;3.32
79172;BMP280;68597;53.238;-1.418;2023-04-25T00:05:04;100869.13;;;3.46
79172;BMP280;68597;53.238;-1.418;2023-04-25T00:07:30;100845.66;;;3.26
79172;BMP280;68597;53.238;-1.418;2023-04-25T00:09:56;100866.75;;;3.38
79172;BMP280;68597;53.238;-1.418;2023-04-25T00:12:23;100857.84;;;3.34
79172;BMP280;68597;53.238;-1.418;2023-04-25T00:14:49;100849.28;;;3.32
79172;BMP280;68597;53.238;-1.418;2023-04-25T00:17:15;100852.97;;;3.29
79172;BMP280;68597;53.238;-1.418;2023-04-25T00:19:41;100844.88;;;3.26
79172;BMP280;68597;53.238;-1.418;2023-04-25T00:22:07;100840.50;;;3.19
79172;BMP280;68597;53.238;-1.418;2023-04-25T00:24:33;100819.84;;;3.06
79172;BMP280;68597;53.238;-1.418;2023-04-25T00:26:59;100821.56;;;3.03
79172;BMP280;68597;53.238;-1.418;2023-04-25T00:29:26;100822.47;;;3.00
79172;BMP280;68597;53.238;-1.418;2023-04-25T00:31:52;100843.28;;;3.10
79172;BMP280;68597;53.238;-1.418;2023-04-25T00:34:18;100849.72;;;3.07
79172;BMP280;68597;53.238;-1.418;2023-04-25T00:36:43;100834.50;;;2.88
79172;BMP280;68597;53.238;-1.418;2023-04-25T00:39:09;100869.69;;;3.02
79172;BMP280;68597;53.238;-1.418;2023-04-25T00:41:35;100869.38;;;3.00
79172;BMP280;68597;53.238;-1.418;2023-04-25T00:44:02;100869.81;;;2.98
79172;BMP280;68597;53.238;-1.418;2023-04-25T00:46:30;100853.81;;;2.88
79172;BMP280;68597;53.238;-1.418;2023-04-25T00:48:56;100854.31;;;2.77
79172;BMP280;68597;53.238;-1.418;2023-04-25T00:51:22;100856.59;;;2.79
79172;BMP280;68597;53.238;-1.418;2023-04-25T00:53:49;100851.72;;;2.74
79172;BMP280;68597;53.238;-1.418;2023-04-25T00:56:15;100881.38;;;2.88
79172;BMP280;68597;53.238;-1.418;2023-04-25T00:58:41;100872.81;;;2.86
79172;BMP280;68597;53.238;-1.418;2023-04-25T01:01:07;100872.53;;;2.84
79172;BMP280;68597;53.238;-1.418;2023-04-25T01:03:37;100872.66;;;2.80
79172;BMP280;68597;53.238;-1.418;2023-04-25T01:06:04;100873.16;;;2.79
79172;BMP280;68597;53.238;-1.418;2023-04-25T01:08:30;100875.41;;;2.80
79172;BMP280;68597;53.238;-1.418;2023-04-25T01:10:56;100874.06;;;2.76
79172;BMP280;68597;53.238;-1.418;2023-04-25T01:13:21;100877.44;;;2.71
79172;BMP280;68597;53.238;-1.418;2023-04-25T01:15:47;100875.00;;;2.73
79172;BMP280;68597;53.238;-1.418;2023-04-25T01:18:14;100871.16;;;2.70
79172;BMP280;68597;53.238;-1.418;2023-04-25T01:20:41;100878.97;;;2.72
79172;BMP280;68597;53.238;-1.418;2023-04-25T01:23:09;100876.69;;;2.70
79172;BMP280;68597;53.238;-1.418;2023-04-25T01:25:35;100867.34;;;2.68
79172;BMP280;68597;53.238;-1.418;2023-04-25T01:28:02;100841.34;;;2.50
79172;BMP280;68597;53.238;-1.418;2023-04-25T01:30:29;100869.50;;;2.64
79172;BMP280;68597;53.238;-1.418;2023-04-25T01:32:56;100862.19;;;2.61
79172;BMP280;68597;53.238;-1.418;2023-04-25T01:35:22;100848.13;;;2.40
79172;BMP280;68597;53.238;-1.418;2023-04-25T01:37:48;100865.09;;;2.57
79172;BMP280;68597;53.238;-1.418;2023-04-25T01:40:15;100859.75;;;2.53
79172;BMP280;68597;53.238;-1.418;2023-04-25T01:42:42;100872.00;;;2.52
79172;BMP280;68597;53.238;-1.418;2023-04-25T01:45:10;100866.16;;;2.50
79172;BMP280;68597;53.238;-1.418;2023-04-25T01:47:36;100869.69;;;2.51
79172;BMP280;68597;53.238;-1.418;2023-04-25T01:50:03;100852.25;;;2.36
79172;BMP280;68597;53.238;-1.418;2023-04-25T01:52:30;100871.06;;;2.46
79172;BMP280;68597;53.238;-1.418;2023-04-25T01:54:56;100869.25;;;2.43
79172;BMP280;68597;53.238;-1.418;2023-04-25T01:57:24;100853.16;;;2.33
79172;BMP280;68597;53.238;-1.418;2023-04-25T01:59:50;100877.81;;;2.45
79172;BMP280;68597;53.238;-1.418;2023-04-25T02:02:36;100880.56;;;2.45
79172;BMP280;68597;53.238;-1.418;2023-04-25T02:05:03;100873.69;;;2.41
79172;BMP280;68597;53.238;-1.418;2023-04-25T02:07:32;100881.03;;;2.44
79172;BMP280;68597;53.238;-1.418;2023-04-25T02:09:58;100851.84;;;2.28
79172;BMP280;68597;53.238;-1.418;2023-04-25T02:12:27;100874.13;;;2.39
79172;BMP280;68597;53.238;-1.418;2023-04-25T02:15:13;100854.88;;;2.30
79172;BMP280;68597;53.238;-1.418;2023-04-25T02:17:43;100862.84;;;2.28
79172;BMP280;68597;53.238;-1.418;2023-04-25T02:20:10;100885.78;;;2.43
79172;BMP280;68597;53.238;-1.418;2023-04-25T02:22:36;100891.00;;;2.41
79172;BMP280;68597;53.238;-1.418;2023-04-25T02:25:05;100858.91;;;2.20
79172;BMP280;68597;53.238;-1.418;2023-04-25T02:27:33;100867.75;;;2.24
79172;BMP280;68597;53.238;-1.418;2023-04-25T02:30:02;100889.91;;;2.39
79172;BMP280;68597;53.238;-1.418;2023-04-25T02:32:28;100894.38;;;2.36
79172;BMP280;68597;53.238;-1.418;2023-04-25T02:34:54;100874.19;;;2.21
79172;BMP280;68597;53.238;-1.418;2023-04-25T02:37:20;100872.19;;;2.22
79172;BMP280;68597;53.238;-1.418;2023-04-25T02:39:46;100886.22;;;2.33
79172;BMP280;68597;53.238;-1.418;2023-04-25T02:42:12;100887.00;;;2.33
79172;BMP280;68597;53.238;-1.418;2023-04-25T02:44:39;100875.38;;;2.29
79172;BMP280;68597;53.238;-1.418;2023-04-25T02:47:05;100894.97;;;2.31
79172;BMP280;68597;53.238;-1.418;2023-04-25T02:49:31;100898.97;;;2.30
79172;BMP280;68597;53.238;-1.418;2023-04-25T02:51:57;100885.97;;;2.22
79172;BMP280;68597;53.238;-1.418;2023-04-25T02:54:23;100905.41;;;2.27
79172;BMP280;68597;53.238;-1.418;2023-04-25T02:56:49;100872.97;;;2.13
79172;BMP280;68597;53.238;-1.418;2023-04-25T02:59:21;100896.84;;;2.25
79172;BMP280;68597;53.238;-1.418;2023-04-25T03:01:48;100902.34;;;2.25
79172;BMP280;68597;53.238;-1.418;2023-04-25T03:04:14;100902.34;;;2.25
79172;BMP280;68597;53.238;-1.418;2023-04-25T03:06:40;100877.84;;;2.09
79172;BMP280;68597;53.238;-1.418;2023-04-25T03:09:06;100897.16;;;2.18
79172;BMP280;68597;53.238;-1.418;2023-04-25T03:11:32;100896.38;;;2.18
79172;BMP280;68597;53.238;-1.418;2023-04-25T03:13:59;100899.56;;;2.16
79172;BMP280;68597;53.238;-1.418;2023-04-25T03:16:26;100905.72;;;2.20
79172;BMP280;68597;53.238;-1.418;2023-04-25T03:18:53;100902.78;;;2.15
79172;BMP280;68597;53.238;-1.418;2023-04-25T03:21:19;100905.09;;;2.16
79172;BMP280;68597;53.238;-1.418;2023-04-25T03:23:45;100914.56;;;2.15
79172;BMP280;68597;53.238;-1.418;2023-04-25T03:26:11;100922.53;;;2.13
79172;BMP280;68597;53.238;-1.418;2023-04-25T03:28:37;100921.31;;;2.05
79172;BMP280;68597;53.238;-1.418;2023-04-25T03:31:04;100896.53;;;1.96
79172;BMP280;68597;53.238;-1.418;2023-04-25T03:33:29;100899.56;;;1.98
79172;BMP280;68597;53.238;-1.418;2023-04-25T03:35:57;100928.19;;;2.09
79172;BMP280;68597;53.238;-1.418;2023-04-25T03:38:23;100920.41;;;2.08
79172;BMP280;68597;53.238;-1.418;2023-04-25T03:40:49;100892.84;;;1.90
79172;BMP280;68597;53.238;-1.418;2023-04-25T03:43:31;100920.53;;;2.04
79172;BMP280;68597;53.238;-1.418;2023-04-25T03:46:11;100910.56;;;1.98
79172;BMP280;68597;53.238;-1.418;2023-04-25T03:48:38;100915.19;;;2.01
79172;BMP280;68597;53.238;-1.418;2023-04-25T03:51:05;100910.56;;;1.98
79172;BMP280;68597;53.238;-1.418;2023-04-25T03:53:34;100916.09;;;1.98
79172;BMP280;68597;53.238;-1.418;2023-04-25T03:56:19;100923.72;;;1.94
79172;BMP280;68597;53.238;-1.418;2023-04-25T03:58:47;100893.59;;;1.72
79172;BMP280;68597;53.238;-1.418;2023-04-25T04:01:15;100912.72;;;1.85
79172;BMP280;68597;53.238;-1.418;2023-04-25T04:03:41;100924.94;;;1.93
79172;BMP280;68597;53.238;-1.418;2023-04-25T04:06:09;100922.22;;;1.84
79172;BMP280;68597;53.238;-1.418;2023-04-25T04:08:38;100931.06;;;1.97
79172;BMP280;68597;53.238;-1.418;2023-04-25T04:11:04;100924.34;;;1.98
79172;BMP280;68597;53.238;-1.418;2023-04-25T04:13:31;100930.47;;;1.93
79172;BMP280;68597;53.238;-1.418;2023-04-25T04:15:57;100933.81;;;1.97
79172;BMP280;68597;53.238;-1.418;2023-04-25T04:18:24;100933.81;;;1.97
79172;BMP280;68597;53.238;-1.418;2023-04-25T04:20:50;100940.09;;;1.97
79172;BMP280;68597;53.238;-1.418;2023-04-25T04:23:19;100938.09;;;1.98
79172;BMP280;68597;53.238;-1.418;2023-04-25T04:25:45;100938.09;;;1.98
79172;BMP280;68597;53.238;-1.418;2023-04-25T04:28:30;100951.88;;;1.98
79172;BMP280;68597;53.238;-1.418;2023-04-25T04:31:04;100942.09;;;1.97
79172;BMP280;68597;53.238;-1.418;2023-04-25T04:33:30;100945.47;;;2.01
79172;BMP280;68597;53.238;-1.418;2023-04-25T04:35:59;100952.19;;;2.00
79172;BMP280;68597;53.238;-1.418;2023-04-25T04:38:26;100951.44;;;1.99
79172;BMP280;68597;53.238;-1.418;2023-04-25T04:40:56;100939.94;;;1.92
79172;BMP280;68597;53.238;-1.418;2023-04-25T04:43:33;100960.13;;;1.98
79172;BMP280;68597;53.238;-1.418;2023-04-25T04:46:14;100959.84;;;1.96
79172;BMP280;68597;53.238;-1.418;2023-04-25T04:48:59;100961.06;;;1.95
79172;BMP280;68597;53.238;-1.418;2023-04-25T04:51:41;100972.06;;;1.95
79172;BMP280;68597;53.238;-1.418;2023-04-25T04:54:15;100973.63;;;1.96
79172;BMP280;68597;53.238;-1.418;2023-04-25T04:57:01;100967.78;;;1.94
79172;BMP280;68597;53.238;-1.418;2023-04-25T04:59:37;100970.53;;;1.94
79172;BMP280;68597;53.238;-1.418;2023-04-25T05:02:21;100972.06;;;1.95
79172;BMP280;68597;53.238;-1.418;2023-04-25T05:05:07;100964.72;;;1.92
79172;BMP280;68597;53.238;-1.418;2023-04-25T05:07:53;100980.34;;;1.95
79172;BMP280;68597;53.238;-1.418;2023-04-25T05:10:31;100980.78;;;1.93
79172;BMP280;68597;53.238;-1.418;2023-04-25T05:13:14;100972.06;;;1.95
79172;BMP280;68597;53.238;-1.418;2023-04-25T05:16:00;100972.84;;;1.95
79172;BMP280;68597;53.238;-1.418;2023-04-25T05:18:34;100975.13;;;1.97
79172;BMP280;68597;53.238;-1.418;2023-04-25T05:21:20;100958.44;;;1.91
79172;BMP280;68597;53.238;-1.418;2023-04-25T05:23:57;100971.16;;;1.98
79172;BMP280;68597;53.238;-1.418;2023-04-25T05:26:45;100983.38;;;1.97
79172;BMP280;68597;53.238;-1.418;2023-04-25T05:29:31;100986.47;;;1.99
79172;BMP280;68597;53.238;-1.418;2023-04-25T05:32:17;100960.75;;;1.84
79172;BMP280;68597;53.238;-1.418;2023-04-25T05:34:45;100979.28;;;2.01
79172;BMP280;68597;53.238;-1.418;2023-04-25T05:37:19;100974.56;;;2.02
79172;BMP280;68597;53.238;-1.418;2023-04-25T05:39:54;100962.72;;;1.92
79172;BMP280;68597;53.238;-1.418;2023-04-25T05:42:41;100981.56;;;2.03
79172;BMP280;68597;53.238;-1.418;2023-04-25T05:45:22;100973.00;;;2.01
79172;BMP280;68597;53.238;-1.418;2023-04-25T05:48:07;100976.69;;;2.07
79172;BMP280;68597;53.238;-1.418;2023-04-25T05:50:41;100975.47;;;2.08
79172;BMP280;68597;53.238;-1.418;2023-04-25T05:53:27;100987.13;;;2.12
79172;BMP280;68597;53.238;-1.418;2023-04-25T05:55:59;100994.44;;;2.15
79172;BMP280;68597;53.238;-1.418;2023-04-25T05:58:31;100994.75;;;2.17
79172;BMP280;68597;53.238;-1.418;2023-04-25T06:00:59;100992.94;;;2.23
79172;BMP280;68597;53.238;-1.418;2023-04-25T06:03:24;100986.53;;;2.26
79172;BMP280;68597;53.238;-1.418;2023-04-25T06:05:51;100983.59;;;2.30
79172;BMP280;68597;53.238;-1.418;2023-04-25T06:08:16;100996.31;;;2.36
79172;BMP280;68597;53.238;-1.418;2023-04-25T06:10:43;100991.72;;;2.42
79172;BMP280;68597;53.238;-1.418;2023-04-25T06:13:08;100999.69;;;2.49
79172;BMP280;68597;53.238;-1.418;2023-04-25T06:15:37;101009.81;;;2.62
79172;BMP280;68597;53.238;-1.418;2023-04-25T06:18:03;101017.44;;;2.76
79172;BMP280;68597;53.238;-1.418;2023-04-25T06:20:29;101014.63;;;2.94
79172;BMP280;68597;53.238;-1.418;2023-04-25T06:22:57;101021.06;;;3.18
79172;BMP280;68597;53.238;-1.418;2023-04-25T06:25:32;101017.59;;;3.42
79172;BMP280;68597;53.238;-1.418;2023-04-25T06:27:59;101017.78;;;3.71
79172;BMP280;68597;53.238;-1.418;2023-04-25T06:30:25;101030.34;;;4.05
79172;BMP280;68597;53.238;-1.418;2023-04-25T06:32:55;101020.91;;;4.35
79172;BMP280;68597;53.238;-1.418;2023-04-25T06:35:23;101018.00;;;4.68
79172;BMP280;68597;53.238;-1.418;2023-04-25T06:37:49;101026.88;;;5.01
79172;BMP280;68597;53.238;-1.418;2023-04-25T06:40:18;101029.94;;;5.33
79172;BMP280;68597;53.238;-1.418;2023-04-25T06:42:44;101011.09;;;5.51
79172;BMP280;68597;53.238;-1.418;2023-04-25T06:45:29;101028.81;;;5.94
79172;BMP280;68597;53.238;-1.418;2023-04-25T06:47:57;101021.59;;;6.23
79172;BMP280;68597;53.238;-1.418;2023-04-25T06:50:23;101023.72;;;6.53
79172;BMP280;68597;53.238;-1.418;2023-04-25T06:52:50;101037.56;;;6.79
79172;BMP280;68597;53.238;-1.418;2023-04-25T06:55:17;101028.19;;;7.02
79172;BMP280;68597;53.238;-1.418;2023-04-25T06:57:57;101038.00;;;7.29
79172;BMP280;68597;53.238;-1.418;2023-04-25T07:00:43;101034.59;;;7.51
79172;BMP280;68597;53.238;-1.418;2023-04-25T07:03:10;101031.97;;;7.73
79172;BMP280;68597;53.238;-1.418;2023-04-25T07:05:36;101032.81;;;7.90
79172;BMP280;68597;53.238;-1.418;2023-04-25T07:08:02;101043.78;;;8.22
79172;BMP280;68597;53.238;-1.418;2023-04-25T07:10:28;101010.94;;;8.26
79172;BMP280;68597;53.238;-1.418;2023-04-25T07:12:54;101017.31;;;8.54
79172;BMP280;68597;53.238;-1.418;2023-04-25T07:15:20;101050.50;;;8.96
79172;BMP280;68597;53.238;-1.418;2023-04-25T07:17:48;101046.44;;;9.20
79172;BMP280;68597;53.238;-1.418;2023-04-25T07:20:16;101042.34;;;9.43
79172;BMP280;68597;53.238;-1.418;2023-04-25T07:22:42;101048.38;;;9.69
79172;BMP280;68597;53.238;-1.418;2023-04-25T07:25:09;101045.75;;;9.93
79172;BMP280;68597;53.238;-1.418;2023-04-25T07:27:35;101051.22;;;10.16
79172;BMP280;68597;53.238;-1.418;2023-04-25T07:30:11;101030.34;;;10.28
79172;BMP280;68597;53.238;-1.418;2023-04-25T07:32:38;101040.66;;;10.44
79172;BMP280;68597;53.238;-1.418;2023-04-25T07:35:05;101059.78;;;10.70
79172;BMP280;68597;53.238;-1.418;2023-04-25T07:37:32;101057.13;;;10.83
79172;BMP280;68597;53.238;-1.418;2023-04-25T07:40:06;101068.69;;;10.98
79172;BMP280;68597;53.238;-1.418;2023-04-25T07:42:32;101064.47;;;11.16
79172;BMP280;68597;53.238;-1.418;2023-04-25T07:44:58;101069.13;;;11.32
79172;BMP280;68597;53.238;-1.418;2023-04-25T07:47:25;101054.09;;;11.35
79172;BMP280;68597;53.238;-1.418;2023-04-25T07:49:51;101056.22;;;11.53
79172;BMP280;68597;53.238;-1.418;2023-04-25T07:52:17;101077.75;;;11.82
79172;BMP280;68597;53.238;-1.418;2023-04-25T07:54:51;101063.16;;;11.89
79172;BMP280;68597;53.238;-1.418;2023-04-25T07:57:22;101075.03;;;12.14
79172;BMP280;68597;53.238;-1.418;2023-04-25T07:59:49;101070.56;;;12.24
79172;BMP280;68597;53.238;-1.418;2023-04-25T08:02:15;101079.09;;;12.50
79172;BMP280;68597;53.238;-1.418;2023-04-25T08:04:42;101093.47;;;12.60
79172;BMP280;68597;53.238;-1.418;2023-04-25T08:07:09;101071.28;;;12.62
79172;BMP280;68597;53.238;-1.418;2023-04-25T08:09:45;101089.47;;;12.87
79172;BMP280;68597;53.238;-1.418;2023-04-25T08:12:20;101065.66;;;12.94
79172;BMP280;68597;53.238;-1.418;2023-04-25T08:14:47;101080.59;;;13.15
79172;BMP280;68597;53.238;-1.418;2023-04-25T08:17:13;101092.34;;;13.27
79172;BMP280;68597;53.238;-1.418;2023-04-25T08:19:41;101085.25;;;13.26
79172;BMP280;68597;53.238;-1.418;2023-04-25T08:22:12;101105.53;;;13.45
79172;BMP280;68597;53.238;-1.418;2023-04-25T08:24:47;101085.88;;;13.45
79172;BMP280;68597;53.238;-1.418;2023-04-25T08:27:14;101107.47;;;13.63
79172;BMP280;68597;53.238;-1.418;2023-04-25T08:29:42;101118.94;;;13.78
79172;BMP280;68597;53.238;-1.418;2023-04-25T08:32:09;101115.88;;;13.89
79172;BMP280;68597;53.238;-1.418;2023-04-25T08:34:39;101123.31;;;14.00
79172;BMP280;68597;53.238;-1.418;2023-04-25T08:37:04;101109.66;;;14.17
79172;BMP280;68597;53.238;-1.418;2023-04-25T08:39:44;101113.19;;;14.31
79172;BMP280;68597;53.238;-1.418;2023-04-25T08:42:31;101113.38;;;14.46
79172;BMP280;68597;53.238;-1.418;2023-04-25T08:45:01;101117.22;;;14.56
79172;BMP280;68597;53.238;-1.418;2023-04-25T08:47:33;101119.16;;;14.61
79172;BMP280;68597;53.238;-1.418;2023-04-25T08:49:59;101118.47;;;14.68
79172;BMP280;68597;53.238;-1.418;2023-04-25T08:52:29;101111.44;;;14.82
79172;BMP280;68597;53.238;-1.418;2023-04-25T08:54:57;101120.50;;;14.88
79172;BMP280;68597;53.238;-1.418;2023-04-25T08:57:24;101094.56;;;14.74
79172;BMP280;68597;53.238;-1.418;2023-04-25T08:59:51;101127.34;;;15.00
79172;BMP280;68597;53.238;-1.418;2023-04-25T09:02:20;101119.16;;;15.02
79172;BMP280;68597;53.238;-1.418;2023-04-25T09:04:48;101087.97;;;15.00
79172;BMP280;68597;53.238;-1.418;2023-04-25T09:07:15;101103.06;;;15.10
79172;BMP280;68597;53.238;-1.418;2023-04-25T09:09:41;101096.94;;;15.19
79172;BMP280;68597;53.238;-1.418;2023-04-25T09:12:06;101117.56;;;15.43
79172;BMP280;68597;53.238;-1.418;2023-04-25T09:14:32;101118.34;;;15.51
79172;BMP280;68597;53.238;-1.418;2023-04-25T09:17:03;101092.09;;;15.56
79172;BMP280;68597;53.238;-1.418;2023-04-25T09:19:40;101092.19;;;15.71
79172;BMP280;68597;53.238;-1.418;2023-04-25T09:22:13;101106.94;;;15.92
79172;BMP280;68597;53.238;-1.418;2023-04-25T09:24:40;101099.44;;;16.02
79172;BMP280;68597;53.238;-1.418;2023-04-25T09:27:08;101102.47;;;16.19
79172;BMP280;68597;53.238;-1.418;2023-04-25T09:29:35;101081.81;;;16.17
79172;BMP280;68597;53.238;-1.418;2023-04-25T09:32:18;101099.34;;;16.45
79172;BMP280;68597;53.238;-1.418;2023-04-25T09:34:48;101109.72;;;16.50
79172;BMP280;68597;53.238;-1.418;2023-04-25T09:37:17;101108.94;;;16.58
79172;BMP280;68597;53.238;-1.418;2023-04-25T09:40:05;101105.00;;;16.61
79172;BMP280;68597;53.238;-1.418;2023-04-25T09:42:35;101110.09;;;16.70
79172;BMP280;68597;53.238;-1.418;2023-04-25T09:45:01;101109.72;;;16.81
79172;BMP280;68597;53.238;-1.418;2023-04-25T09:47:27;101110.84;;;16.93
79172;BMP280;68597;53.238;-1.418;2023-04-25T09:49:55;101118.38;;;17.05
79172;BMP280;68597;53.238;-1.418;2023-04-25T09:52:23;101096.53;;;17.06
79172;BMP280;68597;53.238;-1.418;2023-04-25T09:54:57;101091.81;;;17.16
79172;BMP280;68597;53.238;-1.418;2023-04-25T09:57:29;101115.66;;;17.45
79172;BMP280;68597;53.238;-1.418;2023-04-25T09:59:57;101112.22;;;17.54
79172;BMP280;68597;53.238;-1.418;2023-04-25T10:02:30;101112.59;;;17.58
79172;BMP280;68597;53.238;-1.418;2023-04-25T10:05:07;101105.78;;;17.61
79172;BMP280;68597;53.238;-1.418;2023-04-25T10:07:38;101101.47;;;17.60
79172;BMP280;68597;53.238;-1.418;2023-04-25T10:10:09;101117.78;;;17.77
79172;BMP280;68597;53.238;-1.418;2023-04-25T10:12:37;101108.34;;;17.82
79172;BMP280;68597;53.238;-1.418;2023-04-25T10:15:04;101116.91;;;18.07
79172;BMP280;68597;53.238;-1.418;2023-04-25T10:17:31;101112.47;;;18.13
79172;BMP280;68597;53.238;-1.418;2023-04-25T10:19:57;101118.28;;;18.23
79172;BMP280;68597;53.238;-1.418;2023-04-25T10:22:29;101116.66;;;18.37
79172;BMP280;68597;53.238;-1.418;2023-04-25T10:24:57;101100.09;;;18.41
79172;BMP280;68597;53.238;-1.418;2023-04-25T10:27:23;101093.72;;;18.58
79172;BMP280;68597;53.238;-1.418;2023-04-25T10:30:00;101116.03;;;18.95
79172;BMP280;68597;53.238;-1.418;2023-04-25T10:32:26;101085.03;;;18.97
79172;BMP280;68597;53.238;-1.418;2023-04-25T10:34:52;101096.38;;;19.15
79172;BMP280;68597;53.238;-1.418;2023-04-25T10:37:18;101101.56;;;19.26
79172;BMP280;68597;53.238;-1.418;2023-04-25T10:39:46;101105.16;;;19.43
79172;BMP280;68597;53.238;-1.418;2023-04-25T10:42:12;101119.44;;;19.45
79172;BMP280;68597;53.238;-1.418;2023-04-25T10:44:38;101099.03;;;19.47
79172;BMP280;68597;53.238;-1.418;2023-04-25T10:47:06;101108.53;;;19.59
79172;BMP280;68597;53.238;-1.418;2023-04-25T10:49:33;101099.81;;;19.74
79172;BMP280;68597;53.238;-1.418;2023-04-25T10:52:15;101113.44;;;20.02
79172;BMP280;68597;53.238;-1.418;2023-04-25T10:54:42;101104.75;;;20.00
79172;BMP280;68597;53.238;-1.418;2023-04-25T10:57:26;101114.50;;;20.07
79172;BMP280;68597;53.238;-1.418;2023-04-25T10:59:52;101117.22;;;19.61
79172;BMP280;68597;53.238;-1.418;2023-04-25T11:02:18;101109.88;;;18.89
79172;BMP280;68597;53.238;-1.418;2023-04-25T11:04:47;101112.06;;;18.74
79172;BMP280;68597;53.238;-1.418;2023-04-25T11:07:20;101101.50;;;18.74
79172;BMP280;68597;53.238;-1.418;2023-04-25T11:09:49;101106.69;;;19.03
79172;BMP280;68597;53.238;-1.418;2023-04-25T11:12:16;101109.22;;;19.16
79172;BMP280;68597;53.238;-1.418;2023-04-25T11:14:42;101104.22;;;19.24
79172;BMP280;68597;53.238;-1.418;2023-04-25T11:17:08;101106.00;;;19.36
79172;BMP280;68597;53.238;-1.418;2023-04-25T11:19:34;101109.94;;;19.50
79172;BMP280;68597;53.238;-1.418;2023-04-25T11:22:01;101107.50;;;19.64
79172;BMP280;68597;53.238;-1.418;2023-04-25T11:24:27;101087.50;;;19.62
79172;BMP280;68597;53.238;-1.418;2023-04-25T11:26:53;101090.66;;;19.83
79172;BMP280;68597;53.238;-1.418;2023-04-25T11:29:23;101085.03;;;19.93
79172;BMP280;68597;53.238;-1.418;2023-04-25T11:31:49;101103.63;;;20.13
79172;BMP280;68597;53.238;-1.418;2023-04-25T11:34:17;101103.53;;;20.20
79172;BMP280;68597;53.238;-1.418;2023-04-25T11:36:43;101102.81;;;20.30
79172;BMP280;68597;53.238;-1.418;2023-04-25T11:39:10;101085.97;;;20.41
79172;BMP280;68597;53.238;-1.418;2023-04-25T11:41:37;101087.00;;;20.46
79172;BMP280;68597;53.238;-1.418;2023-04-25T11:44:03;101074.16;;;20.45
79172;BMP280;68597;53.238;-1.418;2023-04-25T11:46:30;101087.00;;;20.46
79172;BMP280;68597;53.238;-1.418;2023-04-25T11:49:00;101090.75;;;20.39
79172;BMP280;68597;53.238;-1.418;2023-04-25T11:51:26;101080.59;;;20.45
79172;BMP280;68597;53.238;-1.418;2023-04-25T11:53:52;101062.38;;;20.39
79172;BMP280;68597;53.238;-1.418;2023-04-25T11:56:18;101087.50;;;20.52
79172;BMP280;68597;53.238;-1.418;2023-04-25T11:58:59;101052.03;;;20.34
79172;BMP280;68597;53.238;-1.418;2023-04-25T12:01:27;101065.22;;;20.39
79172;BMP280;68597;53.238;-1.418;2023-04-25T12:03:54;101073.00;;;20.48
79172;BMP280;68597;53.238;-1.418;2023-04-25T12:06:20;101066.66;;;20.40
79172;BMP280;68597;53.238;-1.418;2023-04-25T12:09:00;101080.75;;;20.57
79172;BMP280;68597;53.238;-1.418;2023-04-25T12:11:25;101077.97;;;20.66
79172;BMP280;68597;53.238;-1.418;2023-04-25T12:13:52;101065.41;;;20.69
79172;BMP280;68597;53.238;-1.418;2023-04-25T12:16:19;101058.66;;;20.65
79172;BMP280;68597;53.238;-1.418;2023-04-25T12:18:44;101057.63;;;20.70
79172;BMP280;68597;53.238;-1.418;2023-04-25T12:21:12;101063.28;;;20.60
79172;BMP280;68597;53.238;-1.418;2023-04-25T12:23:38;101062.78;;;20.25
79172;BMP280;68597;53.238;-1.418;2023-04-25T12:26:04;101068.56;;;19.91
79172;BMP280;68597;53.238;-1.418;2023-04-25T12:28:32;101078.75;;;19.94
79172;BMP280;68597;53.238;-1.418;2023-04-25T12:30:59;101088.59;;;19.93
79172;BMP280;68597;53.238;-1.418;2023-04-25T12:33:26;101071.25;;;19.89
79172;BMP280;68597;53.238;-1.418;2023-04-25T12:35:52;101068.91;;;19.95
79172;BMP280;68597;53.238;-1.418;2023-04-25T12:38:25;101070.28;;;20.04
79172;BMP280;68597;53.238;-1.418;2023-04-25T12:40:51;101051.63;;;20.10
79172;BMP280;68597;53.238;-1.418;2023-04-25T12:43:18;101069.31;;;20.28
79172;BMP280;68597;53.238;-1.418;2023-04-25T12:45:43;101084.34;;;20.48
79172;BMP280;68597;53.238;-1.418;2023-04-25T12:48:09;101084.97;;;20.56
79172;BMP280;68597;53.238;-1.418;2023-04-25T12:50:35;101059.25;;;20.54
79172;BMP280;68597;53.238;-1.418;2023-04-25T12:53:01;101081.69;;;20.69
79172;BMP280;68597;53.238;-1.418;2023-04-25T12:55:28;101076.47;;;20.75
79172;BMP280;68597;53.238;-1.418;2023-04-25T12:57:54;101078.13;;;20.78
79172;BMP280;68597;53.238;-1.418;2023-04-25T13:00:20;101071.25;;;20.62
79172;BMP280;68597;53.238;-1.418;2023-04-25T13:02:46;101080.53;;;20.72
79172;BMP280;68597;53.238;-1.418;2023-04-25T13:05:12;101055.22;;;20.57
79172;BMP280;68597;53.238;-1.418;2023-04-25T13:07:38;101078.72;;;20.67
79172;BMP280;68597;53.238;-1.418;2023-04-25T13:10:04;101068.69;;;20.56
79172;BMP280;68597;53.238;-1.418;2023-04-25T13:12:31;101059.72;;;20.60
79172;BMP280;68597;53.238;-1.418;2023-04-25T13:14:57;101057.75;;;20.53
79172;BMP280;68597;53.238;-1.418;2023-04-25T13:17:23;101060.63;;;20.16
79172;BMP280;68597;53.238;-1.418;2023-04-25T13:19:49;101055.88;;;19.83
79172;BMP280;68597;53.238;-1.418;2023-04-25T13:22:15;101057.75;;;19.80
79172;BMP280;68597;53.238;-1.418;2023-04-25T13:24:41;101085.06;;;20.02
79172;BMP280;68597;53.238;-1.418;2023-04-25T13:27:07;101073.94;;;20.23
79172;BMP280;68597;53.238;-1.418;2023-04-25T13:29:34;101049.03;;;20.32
79172;BMP280;68597;53.238;-1.418;2023-04-25T13:31:59;101084.69;;;20.71
79172;BMP280;68597;53.238;-1.418;2023-04-25T13:34:25;101058.25;;;20.78
79172;BMP280;68597;53.238;-1.418;2023-04-25T13:36:51;101059.44;;;20.94
79172;BMP280;68597;53.238;-1.418;2023-04-25T13:39:17;101067.38;;;21.05
79172;BMP280;68597;53.238;-1.418;2023-04-25T13:41:43;101076.94;;;21.19
79172;BMP280;68597;53.238;-1.418;2023-04-25T13:44:09;101046.00;;;20.94
79172;BMP280;68597;53.238;-1.418;2023-04-25T13:46:37;101063.03;;;20.85
79172;BMP280;68597;53.238;-1.418;2023-04-25T13:49:03;101043.38;;;20.32
79172;BMP280;68597;53.238;-1.418;2023-04-25T13:51:29;101045.34;;;20.02
79172;BMP280;68597;53.238;-1.418;2023-04-25T13:53:54;101051.63;;;20.10
79172;BMP280;68597;53.238;-1.418;2023-04-25T13:56:20;101067.41;;;20.40
79172;BMP280;68597;53.238;-1.418;2023-04-25T13:58:46;101028.91;;;20.37
79172;BMP280;68597;53.238;-1.418;2023-04-25T14:01:12;101042.25;;;20.73